Terminal Aerodrome Forecast
Issued by NWS

Home | Current Version | Previous Version | Text Only | Print | Product List | Glossary On
Versions: 1 2 3 4 5 6 7 8 9 10 11 12 13 14
000
FTUS46 KLOX 241700
TAFLGB
TAF
KLGB 241730Z 2418/2518 VRB03KT P6SM FEW250
     FM241900 20007KT P6SM FEW250
     FM242300 30012KT P6SM FEW150 SCT250
     FM250500 VRB05KT P6SM FEW150 SCT250=

USA.gov is the U.S. government's official web portal to all federal, state and local government web resources and services.